createdAt,value
2017-12-25T00:00:21.425Z,9.80
2017-12-25T00:02:49.650Z,9.80
2017-12-25T00:05:17.873Z,9.80
2017-12-25T00:07:46.100Z,9.80
2017-12-25T00:10:15.441Z,9.80
2017-12-25T00:12:44.425Z,9.80
2017-12-25T00:15:13.731Z,9.80
2017-12-25T00:17:42.718Z,9.70
2017-12-25T00:20:11.714Z,9.70
2017-12-25T00:22:40.725Z,9.70
2017-12-25T00:25:08.949Z,9.70
2017-12-25T00:27:37.174Z,9.70
2017-12-25T00:30:05.386Z,9.70
2017-12-25T00:32:33.621Z,9.70
2017-12-25T00:35:02.822Z,9.60
2017-12-25T00:37:31.194Z,9.60
2017-12-25T00:39:59.410Z,9.60
2017-12-25T00:42:27.657Z,9.60
2017-12-25T00:44:55.866Z,9.60
2017-12-25T00:47:24.084Z,9.60
2017-12-25T00:49:53.077Z,9.60
2017-12-25T00:52:22.074Z,9.60
2017-12-25T00:54:51.061Z,9.60
2017-12-25T00:57:20.041Z,9.50
2017-12-25T00:59:48.526Z,9.50
2017-12-25T01:02:16.717Z,9.50
2017-12-25T01:04:45.706Z,9.50
2017-12-25T01:07:14.995Z,9.50
2017-12-25T01:09:43.997Z,9.50
2017-12-25T01:12:12.969Z,9.60
2017-12-25T01:14:41.953Z,9.70
2017-12-25T01:17:11.271Z,9.60
2017-12-25T01:19:40.263Z,9.60
2017-12-25T01:22:09.277Z,9.60
2017-12-25T01:24:37.497Z,9.60
2017-12-25T01:27:05.729Z,9.60
2017-12-25T01:29:33.948Z,9.60
2017-12-25T01:32:02.458Z,9.50
2017-12-25T01:34:31.444Z,9.50
2017-12-25T01:37:00.498Z,9.50
2017-12-25T01:39:28.697Z,9.50
2017-12-25T01:41:57.018Z,9.50
2017-12-25T01:44:25.241Z,9.50
2017-12-25T01:47:05.477Z,9.50
2017-12-25T01:49:33.712Z,9.50
2017-12-25T01:52:02.687Z,9.40
2017-12-25T01:54:35.367Z,9.40
2017-12-25T02:10:43.585Z,9.50
2017-12-25T02:13:11.809Z,9.50
2017-12-25T02:15:40.832Z,9.60
2017-12-25T02:18:10.239Z,9.60
2017-12-25T02:20:39.643Z,9.60
2017-12-25T02:23:08.748Z,9.60
2017-12-25T02:25:36.966Z,9.60
2017-12-25T02:28:05.172Z,9.60
2017-12-25T02:30:33.390Z,9.60
2017-12-25T02:33:01.594Z,9.50
2017-12-25T02:35:29.827Z,9.50
2017-12-25T02:37:58.283Z,9.40
2017-12-25T02:40:27.286Z,9.40
2017-12-25T02:42:56.250Z,9.40
2017-12-25T02:45:25.253Z,9.40
2017-12-25T02:47:53.465Z,9.40
2017-12-25T02:50:21.698Z,9.40
2017-12-25T02:52:49.917Z,9.40
2017-12-25T02:55:18.123Z,9.50
2017-12-25T02:57:47.679Z,9.50
2017-12-25T03:00:15.904Z,9.50
2017-12-25T03:02:44.130Z,9.60
2017-12-25T03:05:12.342Z,9.50
2017-12-25T03:07:40.589Z,9.60
2017-12-25T03:10:08.801Z,9.60
2017-12-25T03:12:37.237Z,9.50
2017-12-25T03:15:05.450Z,9.50
2017-12-25T03:17:33.673Z,9.50
2017-12-25T03:20:01.889Z,9.50
2017-12-25T03:22:30.114Z,9.50
2017-12-25T03:24:59.098Z,9.50
2017-12-25T03:27:28.085Z,9.50
2017-12-25T03:29:56.313Z,9.40
2017-12-25T03:32:24.571Z,9.50
2017-12-25T03:34:52.749Z,9.50
2017-12-25T03:37:20.956Z,9.50
2017-12-25T03:39:49.475Z,9.50
2017-12-25T03:42:18.462Z,9.60
2017-12-25T03:44:47.766Z,9.50
2017-12-25T03:47:18.667Z,9.50
2017-12-25T03:49:46.860Z,9.40
2017-12-25T03:52:17.509Z,9.50
2017-12-25T03:54:46.486Z,9.60
2017-12-25T03:57:15.490Z,9.60
2017-12-25T03:59:44.469Z,9.60
2017-12-25T04:02:12.745Z,9.50
2017-12-25T04:04:40.958Z,9.60
2017-12-25T04:07:09.225Z,9.60
2017-12-25T04:09:38.210Z,9.70
2017-12-25T04:12:06.684Z,9.60
2017-12-25T04:14:35.775Z,9.70
2017-12-25T04:17:05.242Z,9.70
2017-12-25T04:19:33.469Z,9.70
2017-12-25T04:22:01.691Z,9.70
2017-12-25T04:24:30.736Z,9.70
2017-12-25T04:26:59.203Z,9.70
2017-12-25T04:29:28.195Z,9.70
2017-12-25T04:31:57.209Z,9.70
2017-12-25T04:34:25.442Z,9.70
2017-12-25T04:36:53.652Z,9.70
2017-12-25T04:39:29.001Z,9.70
2017-12-25T04:41:57.222Z,9.80
2017-12-25T04:44:25.429Z,9.70
2017-12-25T04:46:53.670Z,9.80
2017-12-25T04:49:21.977Z,9.80
2017-12-25T04:51:50.228Z,9.70
2017-12-25T04:54:18.445Z,9.70
2017-12-25T04:56:47.441Z,9.70
2017-12-25T04:59:15.649Z,9.70
2017-12-25T05:01:43.933Z,9.80
2017-12-25T05:04:12.136Z,9.70
2017-12-25T05:06:41.129Z,9.70
2017-12-25T05:09:10.146Z,9.70
2017-12-25T05:11:38.394Z,9.70
2017-12-25T05:14:07.378Z,9.70
2017-12-25T05:16:35.631Z,9.70
2017-12-25T05:19:03.963Z,9.70
2017-12-25T05:21:32.185Z,9.70
2017-12-25T05:24:00.425Z,9.70
2017-12-25T05:26:28.654Z,9.70
2017-12-25T05:28:57.665Z,9.70
2017-12-25T05:31:25.889Z,9.60
2017-12-25T05:33:54.130Z,9.60
2017-12-25T05:36:22.341Z,9.60
2017-12-25T05:38:50.681Z,9.70
2017-12-25T05:41:18.908Z,9.60
2017-12-25T05:43:47.169Z,9.60
2017-12-25T05:46:15.392Z,9.60
2017-12-25T05:48:44.379Z,9.60
2017-12-25T05:51:12.629Z,9.60
2017-12-25T05:53:40.904Z,9.60
2017-12-25T05:56:09.401Z,9.60
2017-12-25T05:58:38.398Z,9.60
2017-12-25T06:01:07.390Z,9.60
2017-12-25T06:03:36.401Z,9.70
2017-12-25T06:06:05.372Z,9.70
2017-12-25T06:08:33.589Z,9.60
2017-12-25T06:11:01.846Z,9.60
2017-12-25T06:13:30.130Z,9.60
2017-12-25T06:15:58.360Z,9.60
2017-12-25T06:18:27.401Z,9.60
2017-12-25T06:20:55.606Z,9.50
2017-12-25T06:23:23.833Z,9.60
2017-12-25T06:25:52.830Z,9.60
2017-12-25T06:28:21.294Z,9.60
2017-12-25T06:30:50.290Z,9.60
2017-12-25T06:33:19.266Z,9.50
2017-12-25T06:35:47.490Z,9.50
2017-12-25T06:38:15.710Z,9.60
2017-12-25T06:40:44.206Z,9.50
2017-12-25T06:43:13.173Z,9.60
2017-12-25T06:45:41.393Z,9.50
2017-12-25T06:48:10.369Z,9.60
2017-12-25T06:50:38.594Z,9.50
2017-12-25T06:53:06.814Z,9.60
2017-12-25T06:55:35.297Z,9.60
2017-12-25T06:58:04.280Z,9.60
2017-12-25T07:00:32.485Z,9.50
2017-12-25T07:03:00.718Z,9.60
2017-12-25T07:05:28.927Z,9.60
2017-12-25T07:07:57.909Z,9.60
2017-12-25T07:10:26.894Z,9.60
2017-12-25T07:12:55.904Z,9.60
2017-12-25T07:15:24.111Z,9.50
2017-12-25T07:17:52.298Z,9.50
2017-12-25T07:20:20.543Z,9.50
2017-12-25T07:22:48.760Z,9.50
2017-12-25T07:25:16.978Z,9.40
2017-12-25T07:27:45.202Z,9.40
2017-12-25T07:30:13.423Z,9.40
2017-12-25T07:32:42.402Z,9.40
2017-12-25T07:35:11.387Z,9.30
2017-12-25T07:37:39.597Z,9.30
2017-12-25T07:40:07.846Z,9.30
2017-12-25T07:42:36.045Z,9.30
2017-12-25T07:45:04.246Z,9.30
2017-12-25T07:47:32.479Z,9.30
2017-12-25T07:50:00.694Z,9.20
2017-12-25T07:52:28.925Z,9.30
2017-12-25T07:54:57.893Z,9.20
2017-12-25T07:57:26.107Z,9.20
2017-12-25T07:59:54.324Z,9.20
2017-12-25T08:02:22.550Z,9.20
2017-12-25T08:04:50.766Z,9.20
2017-12-25T08:07:19.001Z,9.20
2017-12-25T08:09:47.223Z,9.20
2017-12-25T08:12:15.437Z,9.20
2017-12-25T08:14:43.661Z,9.30
2017-12-25T08:17:11.886Z,9.20
2017-12-25T08:19:40.114Z,9.30
2017-12-25T08:22:08.340Z,9.40
2017-12-25T08:24:36.616Z,9.50
2017-12-25T08:27:04.837Z,9.60
2017-12-25T08:29:33.070Z,9.70
2017-12-25T08:32:01.319Z,9.80
2017-12-25T08:34:29.514Z,9.80
2017-12-25T08:36:57.849Z,9.90
2017-12-25T08:39:26.057Z,9.90
2017-12-25T08:41:54.293Z,9.80
2017-12-25T08:44:22.505Z,9.80
2017-12-25T08:46:50.742Z,9.80
2017-12-25T08:49:20.445Z,9.80
2017-12-25T08:51:48.666Z,9.70
2017-12-25T08:54:16.888Z,9.80
2017-12-25T08:56:45.090Z,9.70
2017-12-25T08:59:14.094Z,9.70
2017-12-25T09:01:42.307Z,9.60
2017-12-25T09:04:10.521Z,9.70
2017-12-25T09:06:38.737Z,9.70
2017-12-25T09:09:06.949Z,9.70
2017-12-25T09:11:35.170Z,9.70
2017-12-25T09:14:04.173Z,9.70
2017-12-25T09:16:32.409Z,9.60
2017-12-25T09:19:00.625Z,9.80
2017-12-25T09:21:28.866Z,9.70
2017-12-25T09:23:57.861Z,9.80
2017-12-25T09:26:27.211Z,9.80
2017-12-25T09:28:55.421Z,9.80
2017-12-25T09:31:23.929Z,9.80
2017-12-25T09:33:52.157Z,9.80
2017-12-25T09:36:20.381Z,9.70
2017-12-25T09:38:48.605Z,9.80
2017-12-25T09:41:17.057Z,9.70
2017-12-25T09:43:45.284Z,9.80
2017-12-25T09:46:13.537Z,9.80
2017-12-25T09:48:41.753Z,9.80
2017-12-25T09:51:10.234Z,9.80
2017-12-25T09:53:38.485Z,9.80
2017-12-25T09:56:06.702Z,9.90
2017-12-25T09:58:34.926Z,9.90
2017-12-25T10:01:03.141Z,9.90
2017-12-25T10:03:31.381Z,10.00
2017-12-25T10:05:59.609Z,10.00
2017-12-25T10:08:27.841Z,9.90
2017-12-25T10:10:56.057Z,9.90
2017-12-25T10:13:24.309Z,9.90
2017-12-25T10:15:53.357Z,9.90
2017-12-25T10:18:21.578Z,9.90
2017-12-25T10:20:50.592Z,9.90
2017-12-25T10:23:19.593Z,9.90
2017-12-25T10:25:48.566Z,10.00
2017-12-25T10:28:16.774Z,9.90
2017-12-25T10:30:45.311Z,9.90
2017-12-25T10:33:13.518Z,10.00
2017-12-25T10:35:41.749Z,10.00
2017-12-25T10:38:10.782Z,10.00
2017-12-25T10:40:39.022Z,9.90
2017-12-25T10:43:08.015Z,10.10
2017-12-25T10:45:37.041Z,10.10
2017-12-25T10:48:05.266Z,10.10
2017-12-25T10:50:34.285Z,10.20
2017-12-25T10:53:03.574Z,10.20
2017-12-25T10:55:32.565Z,10.20
2017-12-25T10:58:01.654Z,10.20
2017-12-25T11:00:36.502Z,10.10
2017-12-25T11:03:05.499Z,10.00
2017-12-25T11:05:33.717Z,10.00
2017-12-25T11:08:01.972Z,10.00
2017-12-25T11:10:30.202Z,10.10
2017-12-25T11:12:59.227Z,10.10
2017-12-25T11:15:27.465Z,10.00
2017-12-25T11:17:55.898Z,10.10
2017-12-25T11:20:24.141Z,10.10
2017-12-25T11:22:52.392Z,10.10
2017-12-25T11:25:20.674Z,10.10
2017-12-25T11:27:48.891Z,10.20
2017-12-25T11:30:17.439Z,10.10
2017-12-25T11:32:46.421Z,10.00
2017-12-25T11:35:14.638Z,9.90
2017-12-25T11:37:42.879Z,10.00
2017-12-25T11:43:10.572Z,10.00
2017-12-25T11:45:38.799Z,10.00
2017-12-25T11:48:07.314Z,10.00
2017-12-25T11:50:36.301Z,9.90
2017-12-25T11:53:04.530Z,9.80
2017-12-25T11:55:32.768Z,9.90
2017-12-25T11:58:01.761Z,10.00
2017-12-25T12:00:30.762Z,9.90
2017-12-25T12:02:59.022Z,9.90
2017-12-25T12:05:27.196Z,10.00
2017-12-25T12:07:55.446Z,10.00
2017-12-25T12:10:23.694Z,10.10
2017-12-25T12:12:51.910Z,10.00
2017-12-25T12:15:20.137Z,10.00
2017-12-25T12:17:48.359Z,10.00
2017-12-25T12:20:17.662Z,9.90
2017-12-25T12:22:45.898Z,9.90
2017-12-25T12:25:14.418Z,10.00
2017-12-25T12:27:43.426Z,10.00
2017-12-25T12:30:11.660Z,10.00
2017-12-25T12:32:40.692Z,10.00
2017-12-25T12:35:08.945Z,10.00
2017-12-25T12:37:37.949Z,10.10
2017-12-25T12:40:06.949Z,10.10
2017-12-25T12:42:35.934Z,10.20
2017-12-25T12:45:04.208Z,10.10
2017-12-25T12:47:32.421Z,10.20
2017-12-25T12:50:00.646Z,10.10
2017-12-25T12:52:29.654Z,10.10
2017-12-25T12:54:58.661Z,10.10
2017-12-25T12:57:27.102Z,10.10
2017-12-25T12:59:56.124Z,10.20
2017-12-25T13:02:24.600Z,10.10
2017-12-25T13:04:52.844Z,10.20
2017-12-25T13:07:21.110Z,10.20
2017-12-25T13:09:50.189Z,10.10
2017-12-25T13:12:18.423Z,10.00
2017-12-25T13:14:47.441Z,10.00
2017-12-25T13:17:15.665Z,10.00
2017-12-25T13:19:43.894Z,10.00
2017-12-25T13:22:12.142Z,10.00
2017-12-25T13:24:40.369Z,10.00
2017-12-25T13:27:08.621Z,9.90
2017-12-25T13:29:36.860Z,9.80
2017-12-25T13:32:05.842Z,10.00
2017-12-25T13:34:34.099Z,9.90
2017-12-25T13:37:02.329Z,10.00
2017-12-25T13:39:30.603Z,10.00
2017-12-25T13:41:58.814Z,10.00
2017-12-25T13:44:27.080Z,10.10
2017-12-25T13:46:55.277Z,10.20
2017-12-25T13:49:23.547Z,10.20
2017-12-25T13:51:52.058Z,10.30
2017-12-25T13:54:21.070Z,10.60
2017-12-25T13:56:49.302Z,10.50
2017-12-25T13:59:17.528Z,10.70
2017-12-25T14:01:45.760Z,10.70
2017-12-25T14:04:13.980Z,10.70
2017-12-25T14:06:42.218Z,10.70
2017-12-25T14:09:11.223Z,10.70
2017-12-25T14:11:39.470Z,10.60
2017-12-25T14:14:08.485Z,10.70
2017-12-25T14:16:37.782Z,10.70
2017-12-25T14:19:05.993Z,10.60
2017-12-25T14:21:34.242Z,10.70
2017-12-25T14:24:02.470Z,10.60
2017-12-25T14:26:30.701Z,10.60
2017-12-25T14:28:58.936Z,10.60
2017-12-25T14:31:27.149Z,10.50
2017-12-25T14:33:55.388Z,10.40
2017-12-25T14:36:23.612Z,10.40
2017-12-25T14:38:51.941Z,10.30
2017-12-25T14:41:20.167Z,10.30
2017-12-25T14:43:48.394Z,10.30
2017-12-25T14:46:17.412Z,10.20
2017-12-25T14:48:45.642Z,10.20
2017-12-25T14:51:13.932Z,10.20
2017-12-25T14:53:42.182Z,10.20
2017-12-25T14:56:10.399Z,10.20
2017-12-25T14:58:40.260Z,10.00
2017-12-25T15:01:09.370Z,9.90
2017-12-25T15:03:37.626Z,9.90
2017-12-25T15:06:05.885Z,9.90
2017-12-25T15:08:34.138Z,9.90
2017-12-25T15:11:03.115Z,9.80
2017-12-25T15:13:32.663Z,9.80
2017-12-25T15:16:01.202Z,9.70
2017-12-25T15:18:30.228Z,9.70
2017-12-25T15:20:58.596Z,9.60
2017-12-25T15:23:26.912Z,9.70
2017-12-25T15:25:55.300Z,9.70
2017-12-25T15:28:23.605Z,9.70
2017-12-25T15:30:52.584Z,9.50
2017-12-25T15:33:21.080Z,9.50
2017-12-25T15:35:50.208Z,9.50
2017-12-25T15:38:18.616Z,9.40
2017-12-25T15:40:47.078Z,9.40
2017-12-25T15:43:15.479Z,9.40
2017-12-25T15:45:43.719Z,9.40
2017-12-25T15:48:11.953Z,9.40
2017-12-25T15:50:40.194Z,9.30
2017-12-25T15:53:08.403Z,9.30
2017-12-25T15:55:36.794Z,9.20
2017-12-25T15:58:05.793Z,9.20
2017-12-25T16:00:36.795Z,9.20
2017-12-25T16:03:05.889Z,9.10
2017-12-25T16:05:34.110Z,9.10
2017-12-25T16:08:02.350Z,9.10
2017-12-25T16:10:30.797Z,9.00
2017-12-25T16:12:59.202Z,9.00
2017-12-25T16:15:27.539Z,9.00
2017-12-25T16:17:55.903Z,9.00
2017-12-25T16:20:24.178Z,8.90
2017-12-25T16:22:52.485Z,8.90
2017-12-25T16:25:20.813Z,8.90
2017-12-25T16:27:49.089Z,8.90
2017-12-25T16:30:18.102Z,8.80
2017-12-25T16:32:46.320Z,8.70
2017-12-25T16:35:14.534Z,8.70
2017-12-25T16:37:43.542Z,8.70
2017-12-25T16:40:11.766Z,8.70
2017-12-25T16:42:40.007Z,8.70
2017-12-25T16:45:08.546Z,8.60
2017-12-25T16:47:36.750Z,8.60
2017-12-25T16:50:05.743Z,8.60
2017-12-25T16:52:33.989Z,8.60
2017-12-25T16:55:02.424Z,8.60
2017-12-25T16:57:30.661Z,8.60
2017-12-25T16:59:59.155Z,8.60
2017-12-25T17:02:27.676Z,8.60
2017-12-25T17:04:56.033Z,8.60
2017-12-25T17:07:24.374Z,8.60
2017-12-25T17:09:52.722Z,8.60
2017-12-25T17:12:21.054Z,8.60
2017-12-25T17:14:50.199Z,8.60
2017-12-25T17:17:18.599Z,8.50
2017-12-25T17:19:46.891Z,8.50
2017-12-25T17:22:15.322Z,8.50
2017-12-25T17:24:44.484Z,8.50
2017-12-25T17:27:12.859Z,8.50
2017-12-25T17:29:41.262Z,8.50
2017-12-25T17:32:09.655Z,8.40
2017-12-25T17:34:38.157Z,8.40
2017-12-25T17:37:06.574Z,8.30
2017-12-25T17:39:35.288Z,8.30
2017-12-25T17:42:03.921Z,8.30
2017-12-25T17:44:32.361Z,8.20
2017-12-25T17:47:00.727Z,8.20
2017-12-25T17:49:29.040Z,8.20
2017-12-25T17:51:57.382Z,8.20
2017-12-25T17:54:25.769Z,8.20
2017-12-25T17:56:54.130Z,8.20
2017-12-25T17:59:22.357Z,8.10
2017-12-25T18:01:50.581Z,8.10
2017-12-25T18:04:18.823Z,8.10
2017-12-25T18:06:47.049Z,8.10
2017-12-25T18:09:15.282Z,8.00
2017-12-25T18:11:43.697Z,8.00
2017-12-25T18:14:11.990Z,8.00
2017-12-25T18:16:40.982Z,7.90
2017-12-25T18:19:09.989Z,7.90
2017-12-25T18:21:38.220Z,7.90
2017-12-25T18:24:06.463Z,7.90
2017-12-25T18:26:34.665Z,7.80
2017-12-25T18:29:02.905Z,7.80
2017-12-25T18:31:31.153Z,7.80
2017-12-25T18:33:59.433Z,7.80
2017-12-25T18:36:28.422Z,7.80
2017-12-25T18:38:57.395Z,7.80
2017-12-25T18:41:25.674Z,7.80
2017-12-25T18:43:53.881Z,7.80
2017-12-25T18:46:22.223Z,7.70
2017-12-25T18:48:51.219Z,7.70
2017-12-25T18:51:19.458Z,7.60
2017-12-25T18:53:47.689Z,7.60
2017-12-25T18:56:16.682Z,7.50
2017-12-25T18:58:45.690Z,7.50
2017-12-25T19:01:13.926Z,7.40
2017-12-25T19:03:42.158Z,7.40
2017-12-25T19:06:10.377Z,7.50
2017-12-25T19:08:39.362Z,7.40
2017-12-25T19:11:07.618Z,7.40
2017-12-25T19:13:35.825Z,7.30
2017-12-25T19:16:04.086Z,7.30
2017-12-25T19:18:32.345Z,7.30
2017-12-25T19:21:00.553Z,7.30
2017-12-25T19:23:29.581Z,7.30
2017-12-25T19:25:57.785Z,7.20
2017-12-25T19:28:26.027Z,7.30
2017-12-25T19:30:54.253Z,7.30
2017-12-25T19:33:22.464Z,7.30
2017-12-25T19:35:50.706Z,7.30
2017-12-25T19:38:18.928Z,7.30
2017-12-25T19:40:47.478Z,7.30
2017-12-25T19:43:15.696Z,7.30
2017-12-25T19:45:43.901Z,7.40
2017-12-25T19:48:12.511Z,7.40
2017-12-25T19:50:41.490Z,7.30
2017-12-25T19:53:09.716Z,7.30
2017-12-25T19:55:37.943Z,7.20
2017-12-25T19:58:06.434Z,7.20
2017-12-25T20:00:35.433Z,7.20
2017-12-25T20:03:04.410Z,7.20
2017-12-25T20:05:32.642Z,7.10
2017-12-25T20:08:00.870Z,7.20
2017-12-25T20:10:29.868Z,7.20
2017-12-25T20:12:58.856Z,7.20
2017-12-25T20:15:27.857Z,7.20
2017-12-25T20:17:56.086Z,7.20
2017-12-25T20:20:24.340Z,7.20
2017-12-25T20:22:52.578Z,7.20
2017-12-25T20:25:21.567Z,7.10
2017-12-25T20:27:49.815Z,7.10
2017-12-25T20:30:18.030Z,7.10
2017-12-25T20:32:46.269Z,7.10
2017-12-25T20:35:14.749Z,7.10
2017-12-25T20:37:42.957Z,7.10
2017-12-25T20:40:11.212Z,7.10
2017-12-25T20:42:39.430Z,7.00
2017-12-25T20:45:07.653Z,7.00
2017-12-25T20:47:35.849Z,6.90
2017-12-25T20:50:04.833Z,7.00
2017-12-25T20:52:33.838Z,7.00
2017-12-25T20:55:02.045Z,7.00
2017-12-25T20:57:30.283Z,7.00
2017-12-25T20:59:59.273Z,6.90
2017-12-25T21:02:28.269Z,6.90
2017-12-25T21:04:56.606Z,6.90
2017-12-25T21:07:24.821Z,7.00
2017-12-25T21:09:53.157Z,7.00
2017-12-25T21:12:21.421Z,7.00
2017-12-25T21:14:50.058Z,7.00
2017-12-25T21:17:18.286Z,7.00
2017-12-25T21:19:47.621Z,6.90
2017-12-25T21:22:15.875Z,6.90
2017-12-25T21:24:44.078Z,7.00
2017-12-25T21:27:12.317Z,6.90
2017-12-25T21:29:40.564Z,6.90
2017-12-25T21:32:08.786Z,6.90
2017-12-25T21:34:37.786Z,6.90
2017-12-25T21:37:06.794Z,7.00
2017-12-25T21:39:35.813Z,7.00
2017-12-25T21:42:04.054Z,6.90
2017-12-25T21:44:32.319Z,7.00
2017-12-25T21:47:00.533Z,7.00
2017-12-25T21:49:28.753Z,7.00
2017-12-25T21:51:56.981Z,7.10
2017-12-25T21:54:25.223Z,7.10
2017-12-25T21:56:53.446Z,7.00
2017-12-25T21:59:21.669Z,7.00
2017-12-25T22:01:49.882Z,7.00
2017-12-25T22:04:18.096Z,7.00
2017-12-25T22:06:46.301Z,7.00
2017-12-25T22:09:14.567Z,7.10
2017-12-25T22:11:42.761Z,7.10
2017-12-25T22:14:10.998Z,7.10
2017-12-25T22:16:39.226Z,7.10
2017-12-25T22:19:07.441Z,7.00
2017-12-25T22:21:35.948Z,7.10
2017-12-25T22:24:04.935Z,7.10
2017-12-25T22:26:33.949Z,7.10
2017-12-25T22:29:02.174Z,7.10
2017-12-25T22:31:31.620Z,7.10
2017-12-25T22:33:59.822Z,7.00
2017-12-25T22:36:28.081Z,6.90
2017-12-25T22:38:56.333Z,6.90
2017-12-25T22:41:24.596Z,6.90
2017-12-25T22:43:53.577Z,6.80
2017-12-25T22:46:21.794Z,6.70
2017-12-25T22:48:50.026Z,6.80
2017-12-25T22:51:18.269Z,6.70
2017-12-25T22:53:46.473Z,6.70
2017-12-25T22:56:14.701Z,6.60
2017-12-25T22:58:42.932Z,6.50
2017-12-25T23:01:12.160Z,6.50
2017-12-25T23:03:40.435Z,6.40
2017-12-25T23:06:08.618Z,6.50
2017-12-25T23:08:36.849Z,6.50
2017-12-25T23:11:05.058Z,6.50
2017-12-25T23:13:33.354Z,6.50
2017-12-25T23:16:02.417Z,6.50
2017-12-25T23:18:31.413Z,6.50
2017-12-25T23:21:00.458Z,6.40
2017-12-25T23:23:28.652Z,6.40
2017-12-25T23:25:56.875Z,6.50
2017-12-25T23:28:25.111Z,6.50
2017-12-25T23:30:53.338Z,6.40
2017-12-25T23:33:21.574Z,6.40
2017-12-25T23:35:50.569Z,6.40
2017-12-25T23:38:18.786Z,6.30
2017-12-25T23:40:47.046Z,6.40
2017-12-25T23:43:15.353Z,6.40
2017-12-25T23:45:43.581Z,6.40
2017-12-25T23:48:11.846Z,6.30
2017-12-25T23:50:40.064Z,6.30
2017-12-25T23:53:08.314Z,6.30
2017-12-25T23:55:36.534Z,6.30
2017-12-25T23:58:04.782Z,6.20
